Terminal Aerodrome Forecast
Issued by NWS

Home | Current Version | Previous Version | Text Only | Print | Product List | Glossary On
Versions: 1 2 3 4 5 6 7 8 9 10 11 12 13 14 15 16 17 18 19
000
FTUS43 KIND 242000 AAA
TAFHUF
TAF AMD
KHUF 242001Z 2420/2518 26022G32KT 6SM -SHSN OVC035
     FM242200 25014G22KT P6SM OVC030
     FM250300 25010KT P6SM OVC030
     FM251500 28007KT P6SM OVC030=

USA.gov is the U.S. government's official web portal to all federal, state and local government web resources and services.